Time;durP1;ratioP1;P1;durP2;ratioP2;P2;SDS_P1;SDS_P2;PMS_P1;PMS_P2;Temp;Humidity;BMP_temperature;BMP_pressure;BME280_temperature;BME280_humidity;BME280_pressure;Samples;Min_cycle;Max_cycle;Signal;HPM_P1;HPM_P2
2022/11/16 00:02:09;;;;;;;;;;;;;;;9.30;70.29;94980.63;5053021;28;998;-59
2022/11/16 00:04:35;;;;;;;;;;;;;;;9.36;69.46;94977.31;5052876;28;959;-59
2022/11/16 00:07:04;;;;;;;;;;;;;;;9.34;70.34;94969.47;5053671;28;981;-59
2022/11/16 00:09:30;;;;;;;;;;;;;;;9.11;70.91;94974.50;5056524;28;975;-59
2022/11/16 00:11:58;;;;;;;;;;;;;;;8.99;71.60;94978.38;5056531;28;1906;-59
2022/11/16 00:14:25;;;;;;;;;;;;;;;9.00;71.88;94974.75;5056612;28;1038;-59
2022/11/16 00:16:51;;;;;;;;;;;;;;;8.96;71.57;94973.38;5056595;28;979;-59
2022/11/16 00:19:17;;;;;;;;;;;;;;;9.11;70.38;94968.31;5056362;28;1128;-59
2022/11/16 00:21:43;;;;;;;;;;;;;;;9.04;70.46;94967.28;5056438;28;1993;-59
2022/11/16 00:24:13;;;;;;;;;;;;;;;8.74;71.75;94966.72;5056327;28;1135;-59
2022/11/16 00:26:40;;;;;;;;;;;;;;;8.90;71.13;94979.34;5056463;28;1049;-58
2022/11/16 00:29:06;;;;;;;;;;;;;;;8.95;70.28;94967.22;5056455;28;986;-59
2022/11/16 00:31:32;;;;;;;;;;;;;;;8.93;70.05;94971.03;5056078;28;1910;-59
2022/11/16 00:33:58;;;;;;;;;;;;;;;8.76;70.73;94964.72;5038530;28;1121;-59
2022/11/16 00:36:24;;;;;;;;;;;;;;;8.83;70.33;94960.44;5056008;28;1113;-59
2022/11/16 00:38:51;;;;;;;;;;;;;;;8.89;70.60;94967.00;5056019;28;1692;-59
2022/11/16 00:41:17;;;;;;;;;;;;;;;8.69;71.64;94959.19;5055971;28;1914;-59
2022/11/16 00:43:43;;;;;;;;;;;;;;;8.77;71.70;94953.09;5038526;28;1239;-59
2022/11/16 00:46:09;;;;;;;;;;;;;;;8.87;70.17;94958.31;5055900;28;1164;-59
2022/11/16 00:48:35;;;;;;;;;;;;;;;8.67;72.30;94949.66;5055925;28;1049;-59
2022/11/16 00:51:01;;;;;;;;;;;;;;;8.69;71.50;94950.31;5055819;28;1998;-59
2022/11/16 00:53:27;;;;;;;;;;;;;;;8.86;70.47;94952.16;5055686;28;1042;-59
2022/11/16 00:55:53;;;;;;;;;;;;;;;8.79;69.99;94951.94;5055476;28;1619;-59
2022/11/16 00:58:19;;;;;;;;;;;;;;;8.75;69.59;94952.41;5055817;28;962;-59
2022/11/16 01:00:45;;;;;;;;;;;;;;;8.72;70.12;94948.19;5055883;28;986;-59
2022/11/16 01:03:11;;;;;;;;;;;;;;;8.72;70.08;94942.03;5055755;28;962;-59
2022/11/16 01:05:37;;;;;;;;;;;;;;;8.62;69.88;94947.47;5055657;28;1073;-59
2022/11/16 01:08:03;;;;;;;;;;;;;;;8.61;69.89;94943.09;5055526;28;953;-59
2022/11/16 01:10:29;;;;;;;;;;;;;;;8.56;70.52;94948.09;5055654;28;1066;-59
2022/11/16 01:12:56;;;;;;;;;;;;;;;8.44;71.67;94952.78;5055578;28;1984;-59
2022/11/16 01:15:24;;;;;;;;;;;;;;;8.53;71.30;94943.88;5055333;28;1008;-59
2022/11/16 01:17:51;;;;;;;;;;;;;;;8.57;69.81;94933.75;5055313;28;970;-59
2022/11/16 01:20:18;;;;;;;;;;;;;;;8.59;69.50;94935.28;5055231;28;1040;-59
2022/11/16 01:22:44;;;;;;;;;;;;;;;8.32;71.11;94933.50;5055244;28;1140;-59
2022/11/16 01:25:11;;;;;;;;;;;;;;;8.29;71.51;94928.50;5055236;28;1097;-59
2022/11/16 01:27:37;;;;;;;;;;;;;;;8.37;71.56;94931.22;5055294;28;994;-59
2022/11/16 01:30:04;;;;;;;;;;;;;;;8.54;69.78;94934.91;5055248;28;1021;-59
2022/11/16 01:32:30;;;;;;;;;;;;;;;8.47;70.44;94933.84;5055030;28;1911;-59
2022/11/16 01:34:56;;;;;;;;;;;;;;;8.63;70.63;94924.31;5055085;28;978;-59
2022/11/16 01:37:22;;;;;;;;;;;;;;;8.69;71.01;94926.34;5054844;28;1433;-59
2022/11/16 01:39:49;;;;;;;;;;;;;;;8.77;71.11;94934.41;5055175;28;997;-59
2022/11/16 01:42:19;;;;;;;;;;;;;;;8.79;70.76;94930.59;5055038;28;1014;-59
2022/11/16 01:44:45;;;;;;;;;;;;;;;8.80;71.32;94936.75;5054944;28;982;-59
2022/11/16 01:47:13;;;;;;;;;;;;;;;8.90;71.12;94934.03;5054903;28;1029;-59
2022/11/16 01:49:46;;;;;;;;;;;;;;;8.72;72.21;94934.88;5054709;28;1077;-59
2022/11/16 01:52:15;;;;;;;;;;;;;;;8.93;70.85;94928.34;5054676;28;1906;-59
2022/11/16 01:54:43;;;;;;;;;;;;;;;8.95;71.10;94927.22;5054584;28;1626;-59
2022/11/16 01:57:11;;;;;;;;;;;;;;;8.83;71.73;94912.47;5054771;28;1033;-59
2022/11/16 01:59:38;;;;;;;;;;;;;;;8.82;71.93;94918.81;5054484;28;1050;-59
2022/11/16 02:02:04;;;;;;;;;;;;;;;8.88;72.18;94919.97;5054516;28;1113;-59
2022/11/16 02:04:30;;;;;;;;;;;;;;;8.69;72.45;94913.88;5054319;28;1017;-59
2022/11/16 02:07:14;;;;;;;;;;;;;;;8.75;72.97;94907.91;5054640;28;966;-59
2022/11/16 02:09:52;;;;;;;;;;;;;;;8.59;73.38;94905.13;5054551;28;1056;-59
2022/11/16 02:12:28;;;;;;;;;;;;;;;8.73;72.94;94901.06;5054111;28;1988;-59
2022/11/16 02:15:12;;;;;;;;;;;;;;;8.92;71.80;94900.03;5054274;28;1017;-59
2022/11/16 02:17:57;;;;;;;;;;;;;;;8.90;72.33;94902.03;5036609;28;971;-59
2022/11/16 02:20:42;;;;;;;;;;;;;;;8.93;72.81;94894.53;5054149;28;1044;-59
2022/11/16 02:23:08;;;;;;;;;;;;;;;8.77;73.06;94903.25;5054137;28;1041;-59
2022/11/16 02:25:37;;;;;;;;;;;;;;;8.77;72.68;94899.78;5054269;28;970;-59
2022/11/16 02:28:18;;;;;;;;;;;;;;;8.94;72.02;94901.53;5054181;28;1014;-59
2022/11/16 02:30:48;;;;;;;;;;;;;;;8.93;72.50;94904.34;5053483;28;1050;-59
2022/11/16 02:33:17;;;;;;;;;;;;;;;9.01;72.35;94896.44;5053824;28;1902;-59
2022/11/16 02:35:47;;;;;;;;;;;;;;;9.09;72.11;94896.47;5053828;28;1046;-59
2022/11/16 02:38:16;;;;;;;;;;;;;;;9.03;73.22;94898.91;5053970;28;1493;-59
2022/11/16 02:40:46;;;;;;;;;;;;;;;9.17;72.86;94893.84;5053979;28;1043;-59
2022/11/16 02:43:15;;;;;;;;;;;;;;;9.05;73.94;94888.91;5054190;28;966;-59
2022/11/16 02:45:46;;;;;;;;;;;;;;;9.25;73.36;94885.03;5053798;28;1041;-59
2022/11/16 02:48:18;;;;;;;;;;;;;;;9.28;72.93;94884.72;5053695;28;1114;-60
2022/11/16 02:50:45;;;;;;;;;;;;;;;9.36;73.29;94883.94;5053611;28;1058;-59
2022/11/16 02:53:11;;;;;;;;;;;;;;;9.31;73.90;94892.41;5053655;28;2694;-58
2022/11/16 02:55:37;;;;;;;;;;;;;;;9.48;73.38;94885.28;5053359;28;1681;-58
2022/11/16 02:58:09;;;;;;;;;;;;;;;9.61;72.80;94884.03;5053665;28;1069;-59
2022/11/16 03:00:58;;;;;;;;;;;;;;;9.55;72.84;94886.34;5053521;28;1048;-58
2022/11/16 03:03:33;;;;;;;;;;;;;;;9.44;73.50;94883.13;5045297;28;1179;-59
2022/11/16 03:06:12;;;;;;;;;;;;;;;9.50;73.16;94890.47;5053619;28;986;-58
2022/11/16 03:08:41;;;;;;;;;;;;;;;9.46;73.72;94881.97;5053514;28;998;-59
2022/11/16 03:13:56;;;;;;;;;;;;;;;9.42;74.08;94869.94;5053569;28;1061;-59
2022/11/16 03:16:25;;;;;;;;;;;;;;;9.43;75.12;94868.94;5053398;28;998;-59
2022/11/16 03:18:54;;;;;;;;;;;;;;;9.43;74.94;94866.28;5053367;28;1038;-59
2022/11/16 03:21:24;;;;;;;;;;;;;;;9.55;74.65;94870.31;5053286;28;950;-59
2022/11/16 03:23:50;;;;;;;;;;;;;;;9.41;75.46;94854.09;5053230;28;1045;-59
2022/11/16 03:26:18;;;;;;;;;;;;;;;9.46;75.20;94855.28;5053398;28;974;-58
2022/11/16 03:28:54;;;;;;;;;;;;;;;9.69;74.43;94863.50;5053178;28;1105;-59
2022/11/16 03:31:28;;;;;;;;;;;;;;;9.72;74.42;94865.88;5053184;28;1914;-59
2022/11/16 03:33:56;;;;;;;;;;;;;;;9.73;74.60;94864.03;5053150;28;1037;-59
2022/11/16 03:36:25;;;;;;;;;;;;;;;9.75;74.60;94859.34;5052965;28;1051;-59
2022/11/16 03:38:53;;;;;;;;;;;;;;;9.81;74.85;94861.41;5053251;28;1802;-59
2022/11/16 03:41:20;;;;;;;;;;;;;;;9.80;74.92;94857.03;5052953;28;970;-59
2022/11/16 03:43:47;;;;;;;;;;;;;;;9.77;75.12;94849.38;5056935;28;1049;-59
2022/11/16 03:46:15;;;;;;;;;;;;;;;9.88;74.68;94842.88;5057150;28;983;-59
2022/11/16 03:48:41;;;;;;;;;;;;;;;9.89;74.78;94848.06;5057027;28;1050;-59
2022/11/16 03:51:08;;;;;;;;;;;;;;;9.82;75.09;94841.69;5056890;28;1938;-59
2022/11/16 03:53:35;;;;;;;;;;;;;;;9.88;75.41;94848.22;5057053;28;1041;-58
2022/11/16 03:56:01;;;;;;;;;;;;;;;9.94;75.39;94853.75;5056634;28;1618;-59
2022/11/16 03:58:27;;;;;;;;;;;;;;;10.05;74.53;94846.41;5056936;28;1225;-59
2022/11/16 04:00:53;;;;;;;;;;;;;;;10.07;74.35;94839.91;5056948;28;1033;-58
2022/11/16 04:03:19;;;;;;;;;;;;;;;10.02;74.56;94842.25;5056749;28;955;-59
2022/11/16 04:25:07;;;;;;;;;;;;;;;9.72;76.53;94831.16;5056590;28;1018;-59
2022/11/16 04:30:18;;;;;;;;;;;;;;;9.88;76.06;94826.84;5056166;28;1034;-59
2022/11/16 04:38:13;;;;;;;;;;;;;;;9.87;76.63;94825.19;5056111;28;1694;-59
2022/11/16 04:40:39;;;;;;;;;;;;;;;9.70;77.28;94822.47;5056073;28;1114;-59
2022/11/16 04:43:05;;;;;;;;;;;;;;;9.81;77.07;94824.00;5055945;28;1026;-59
2022/11/16 04:48:17;;;;;;;;;;;;;;;10.04;76.15;94813.53;5056084;28;1112;-58
2022/11/16 04:50:43;;;;;;;;;;;;;;;9.93;76.42;94812.00;5055815;28;1058;-59
2022/11/16 04:53:09;;;;;;;;;;;;;;;10.05;76.06;94812.50;5055312;28;1973;-59
2022/11/16 04:55:35;;;;;;;;;;;;;;;10.12;75.71;94810.03;5055493;28;1677;-59
2022/11/16 04:58:02;;;;;;;;;;;;;;;10.15;76.03;94807.84;5055658;28;1033;-58
2022/11/16 05:00:28;;;;;;;;;;;;;;;10.07;76.12;94807.84;5055810;28;961;-59
2022/11/16 05:02:54;;;;;;;;;;;;;;;10.07;76.52;94802.50;5055763;28;959;-59
2022/11/16 05:05:20;;;;;;;;;;;;;;;10.09;76.51;94805.84;5055613;28;1016;-59
2022/11/16 05:07:46;;;;;;;;;;;;;;;10.16;76.28;94806.00;5055676;28;985;-59
2022/11/16 05:10:13;;;;;;;;;;;;;;;10.17;75.93;94799.69;5055546;28;1056;-58
2022/11/16 05:12:39;;;;;;;;;;;;;;;10.26;75.83;94801.34;5055167;28;1910;-59
2022/11/16 05:15:05;;;;;;;;;;;;;;;10.15;76.51;94807.03;5055640;28;978;-58
2022/11/16 05:17:31;;;;;;;;;;;;;;;10.09;77.10;94796.97;5037684;28;1097;-59
2022/11/16 05:22:42;;;;;;;;;;;;;;;10.15;76.93;94794.50;5055372;28;1014;-59
2022/11/16 05:25:09;;;;;;;;;;;;;;;10.19;76.62;94795.00;5055116;28;1082;-59
2022/11/16 05:27:36;;;;;;;;;;;;;;;10.22;76.55;94805.34;5055102;28;1054;-59
2022/11/16 05:30:05;;;;;;;;;;;;;;;10.27;76.55;94808.34;5055366;28;966;-59
2022/11/16 05:32:31;;;;;;;;;;;;;;;10.20;76.63;94806.50;5055082;28;1914;-59
2022/11/16 05:34:57;;;;;;;;;;;;;;;10.07;77.14;94801.66;5055236;28;1037;-58
2022/11/16 05:37:25;;;;;;;;;;;;;;;10.20;76.89;94804.66;5054896;28;1446;-57
2022/11/16 05:39:52;;;;;;;;;;;;;;;10.31;76.83;94804.34;5055062;28;1042;-58
2022/11/16 05:42:18;;;;;;;;;;;;;;;10.32;76.32;94806.03;5054853;28;1055;-58
2022/11/16 05:44:44;;;;;;;;;;;;;;;10.21;77.10;94801.00;5055056;28;1021;-58
2022/11/16 05:47:10;;;;;;;;;;;;;;;10.30;76.85;94800.03;5054966;28;982;-58
2022/11/16 05:49:36;;;;;;;;;;;;;;;10.39;76.32;94803.53;5054679;28;1062;-58
2022/11/16 05:52:02;;;;;;;;;;;;;;;10.33;76.66;94794.34;5054692;28;1999;-58
2022/11/16 05:54:30;;;;;;;;;;;;;;;10.27;76.88;94807.50;5054482;28;1729;-58
2022/11/16 05:56:56;;;;;;;;;;;;;;;10.39;76.66;94802.69;5054485;28;1204;-58
2022/11/16 05:59:22;;;;;;;;;;;;;;;10.54;76.17;94801.00;5037031;28;967;-59
2022/11/16 06:01:49;;;;;;;;;;;;;;;10.60;76.21;94807.50;5054602;28;1066;-59
2022/11/16 06:04:16;;;;;;;;;;;;;;;10.61;76.09;94807.34;5054042;28;1050;-58
2022/11/16 06:06:42;;;;;;;;;;;;;;;10.64;75.99;94811.50;5054110;28;1062;-58
2022/11/16 06:09:09;;;;;;;;;;;;;;;10.68;76.04;94800.31;5054361;28;990;-59
2022/11/16 06:11:37;;;;;;;;;;;;;;;10.73;76.23;94805.16;5054467;28;1905;-58
2022/11/16 06:14:03;;;;;;;;;;;;;;;10.81;75.54;94796.25;5054329;28;2103;-60
2022/11/16 06:16:29;;;;;;;;;;;;;;;10.87;75.22;94787.56;5054377;28;970;-59
2022/11/16 06:18:55;;;;;;;;;;;;;;;10.90;75.56;94792.56;5054191;28;1042;-59
2022/11/16 06:21:21;;;;;;;;;;;;;;;11.00;74.83;94792.38;5054067;28;966;-58
2022/11/16 06:23:48;;;;;;;;;;;;;;;11.02;74.89;94799.22;5054363;28;1041;-70
2022/11/16 06:26:14;;;;;;;;;;;;;;;11.09;74.45;94799.34;5054305;28;1099;-59
2022/11/16 06:28:40;;;;;;;;;;;;;;;11.12;74.52;94793.69;5054236;28;974;-60
2022/11/16 06:31:06;;;;;;;;;;;;;;;11.19;74.27;94796.47;5053999;28;2305;-58
2022/11/16 06:33:32;;;;;;;;;;;;;;;11.33;73.72;94793.91;5053820;28;1102;-59
2022/11/16 06:35:58;;;;;;;;;;;;;;;11.53;72.87;94798.81;5053946;28;1060;-58
2022/11/16 06:38:24;;;;;;;;;;;;;;;11.62;72.08;94803.13;5053744;28;1695;-59
2022/11/16 06:40:51;;;;;;;;;;;;;;;11.64;72.13;94802.97;5054086;28;983;-59
2022/11/16 06:43:17;;;;;;;;;;;;;;;11.82;71.27;94808.88;5053876;28;1001;-59
2022/11/16 06:45:47;;;;;;;;;;;;;;;11.99;70.42;94804.28;5053749;28;1332;-59
2022/11/16 06:48:13;;;;;;;;;;;;;;;12.09;69.97;94799.50;5053783;28;986;-59
2022/11/16 06:50:39;;;;;;;;;;;;;;;12.03;70.00;94794.03;5053609;28;962;-58
2022/11/16 06:53:05;;;;;;;;;;;;;;;12.12;70.13;94790.25;5053547;28;1948;-58
2022/11/16 06:55:31;;;;;;;;;;;;;;;14.40;62.50;94800.34;5053421;28;1637;-59
2022/11/16 06:57:57;;;;;;;;;;;;;;;16.95;53.62;94799.38;5053779;28;1016;-59
2022/11/16 07:00:23;;;;;;;;;;;;;;;18.20;50.91;94795.66;5053617;28;998;-59
2022/11/16 07:02:49;;;;;;;;;;;;;;;18.03;51.79;94792.63;5053418;28;1057;-59
2022/11/16 07:05:15;;;;;;;;;;;;;;;19.41;47.85;94799.09;5053400;28;1167;-59
2022/11/16 07:07:41;;;;;;;;;;;;;;;20.32;46.10;94798.41;5053383;28;1061;-59
2022/11/16 07:10:08;;;;;;;;;;;;;;;23.87;38.83;94826.44;5053378;28;1002;-59
2022/11/16 07:12:34;;;;;;;;;;;;;;;22.53;40.01;94816.03;5053337;28;1995;-59
2022/11/16 07:15:00;;;;;;;;;;;;;;;21.77;41.69;94799.81;5035464;28;1418;-59
2022/11/16 07:17:26;;;;;;;;;;;;;;;20.13;45.35;94794.91;5053105;28;1078;-59
2022/11/16 07:19:52;;;;;;;;;;;;;;;20.23;45.08;94787.06;5053331;28;978;-58
2022/11/16 07:22:18;;;;;;;;;;;;;;;19.78;45.99;94777.41;5053158;28;974;-58
2022/11/16 07:24:44;;;;;;;;;;;;;;;19.92;45.94;94778.09;5053454;28;1041;-59
2022/11/16 07:27:10;;;;;;;;;;;;;;;23.33;40.01;94786.06;5053213;28;1090;-59
2022/11/16 07:29:36;;;;;;;;;;;;;;;24.98;36.84;94794.34;5053257;28;1061;-59
2022/11/16 07:32:02;;;;;;;;;;;;;;;25.50;35.31;94802.72;5053210;28;1922;-59
2022/11/16 07:34:28;;;;;;;;;;;;;;;23.87;37.47;94794.50;5053074;28;1109;-59
2022/11/16 07:36:54;;;;;;;;;;;;;;;24.99;36.56;94799.56;5053111;28;967;-59
2022/11/16 07:39:20;;;;;;;;;;;;;;;24.10;36.76;94792.59;5053149;28;1501;-59
2022/11/16 07:41:49;;;;;;;;;;;;;;;23.68;38.74;94784.94;5053250;28;1016;-59
2022/11/16 07:44:15;;;;;;;;;;;;;;;21.94;40.70;94767.22;5052961;28;1058;-59
2022/11/16 07:46:41;;;;;;;;;;;;;;;20.39;43.98;94761.16;5053112;28;986;-60
2022/11/16 07:49:07;;;;;;;;;;;;;;;19.02;47.38;94751.53;5053114;28;1256;-59
2022/11/16 07:51:33;;;;;;;;;;;;;;;18.75;47.87;94751.75;5052792;28;1910;-59
2022/11/16 07:53:59;;;;;;;;;;;;;;;18.25;49.59;94746.28;5053078;28;1622;-59
2022/11/16 07:56:25;;;;;;;;;;;;;;;18.16;49.58;94747.63;5052767;28;1235;-59
2022/11/16 07:58:51;;;;;;;;;;;;;;;17.98;50.47;94746.47;5053048;28;1041;-59
2022/11/16 08:01:17;;;;;;;;;;;;;;;17.66;51.08;94749.13;5052832;28;1043;-59
2022/11/16 08:03:44;;;;;;;;;;;;;;;17.28;52.25;94735.50;5052844;28;1046;-59
2022/11/16 08:06:19;;;;;;;;;;;;;;;16.86;53.78;94732.28;5052707;28;1042;-59
2022/11/16 08:08:45;;;;;;;;;;;;;;;16.61;54.33;94746.41;5052968;28;1045;-59
2022/11/16 08:11:11;;;;;;;;;;;;;;;16.28;55.19;94739.16;5052910;28;1914;-59
2022/11/16 08:13:38;;;;;;;;;;;;;;;16.05;56.46;94746.78;5052866;28;1044;-59
2022/11/16 08:16:08;;;;;;;;;;;;;;;15.87;57.00;94729.34;5052816;28;967;-58
2022/11/16 08:18:34;;;;;;;;;;;;;;;15.61;57.24;94738.13;5052617;28;982;-58
2022/11/16 08:21:01;;;;;;;;;;;;;;;15.59;57.65;94730.28;5052918;28;1022;-58
2022/11/16 08:23:27;;;;;;;;;;;;;;;15.61;57.71;94719.28;5034998;28;1094;-58
2022/11/16 08:25:57;;;;;;;;;;;;;;;15.68;57.35;94717.44;5052816;28;1038;-58
2022/11/16 08:28:23;;;;;;;;;;;;;;;15.83;57.22;94721.88;5053782;28;1125;-58
2022/11/16 08:30:50;;;;;;;;;;;;;;;16.10;55.83;94720.88;5056381;28;970;-58
2022/11/16 08:33:18;;;;;;;;;;;;;;;16.68;54.61;94722.94;5056121;28;1957;-58
2022/11/16 08:35:44;;;;;;;;;;;;;;;17.52;52.47;94725.88;5056204;28;1105;-58
2022/11/16 08:38:10;;;;;;;;;;;;;;;19.34;47.94;94721.63;5056302;28;1421;-58
2022/11/16 08:40:37;;;;;;;;;;;;;;;23.43;39.94;94734.41;5056141;28;1002;-58
2022/11/16 08:43:03;;;;;;;;;;;;;;;27.87;33.46;94762.13;5056076;28;1092;-59
2022/11/16 08:45:30;;;;;;;;;;;;;;;27.72;31.85;94749.28;5055987;28;1600;-59
2022/11/16 08:47:56;;;;;;;;;;;;;;;29.53;32.37;94745.19;5055968;28;1216;-59
2022/11/16 08:50:22;;;;;;;;;;;;;;;30.79;29.90;94767.13;5038257;28;1053;-59
2022/11/16 08:52:48;;;;;;;;;;;;;;;28.15;30.29;94756.03;5038139;28;1902;-59
2022/11/16 08:55:16;;;;;;;;;;;;;;;23.88;37.02;94724.34;5055603;28;1693;-60
2022/11/16 08:57:42;;;;;;;;;;;;;;;20.58;42.41;94700.28;5055800;28;1104;-59
2022/11/16 09:00:08;;;;;;;;;;;;;;;18.33;47.87;94678.41;5055855;28;1050;-59
2022/11/16 09:02:34;;;;;;;;;;;;;;;16.94;51.43;94678.91;5055564;28;974;-59
2022/11/16 09:05:00;;;;;;;;;;;;;;;16.04;53.78;94675.84;5055696;28;1121;-59
2022/11/16 09:07:26;;;;;;;;;;;;;;;15.64;56.13;94686.53;5055496;28;1116;-59
2022/11/16 09:09:52;;;;;;;;;;;;;;;15.33;56.69;94670.94;5055604;28;1100;-58
2022/11/16 09:12:18;;;;;;;;;;;;;;;15.23;56.95;94679.38;5055514;28;1906;-58
2022/11/16 09:14:44;;;;;;;;;;;;;;;15.26;57.83;94678.97;5055466;28;1054;-58
2022/11/16 09:17:10;;;;;;;;;;;;;;;15.21;57.36;94678.75;5055343;28;1147;-58
2022/11/16 09:19:37;;;;;;;;;;;;;;;15.16;57.99;94673.97;5055300;28;1050;-58
2022/11/16 09:22:03;;;;;;;;;;;;;;;15.28;58.47;94666.13;5055358;28;1265;-59
2022/11/16 09:24:30;;;;;;;;;;;;;;;15.55;57.46;94677.81;5055391;28;1068;-58
2022/11/16 09:26:59;;;;;;;;;;;;;;;15.65;57.88;94668.50;5055238;28;1114;-59
2022/11/16 09:29:26;;;;;;;;;;;;;;;15.70;57.63;94668.72;5055188;28;1085;-59
2022/11/16 09:31:53;;;;;;;;;;;;;;;15.70;57.63;94661.47;5055013;28;1910;-59
2022/11/16 09:34:19;;;;;;;;;;;;;;;15.61;57.94;94662.69;5055297;28;1068;-58
2022/11/16 09:36:45;;;;;;;;;;;;;;;15.31;58.68;94649.59;5055291;28;970;-59
2022/11/16 09:39:12;;;;;;;;;;;;;;;15.18;60.05;94649.53;5054336;28;1139;-58
2022/11/16 09:41:50;;;;;;;;;;;;;;;15.87;57.59;94648.47;5054447;28;1081;-58
2022/11/16 09:44:34;;;;;;;;;;;;;;;18.76;50.04;94655.09;5054810;28;1125;-59
2022/11/16 09:47:01;;;;;;;;;;;;;;;17.98;51.54;94649.09;5055104;28;1041;-59
2022/11/16 09:49:33;;;;;;;;;;;;;;;16.98;53.40;94650.44;5054756;28;1054;-58
2022/11/16 09:52:01;;;;;;;;;;;;;;;16.25;55.69;94641.63;5054862;28;1996;-57
2022/11/16 09:54:33;;;;;;;;;;;;;;;15.99;57.16;94635.19;5054538;28;1682;-57
2022/11/16 09:57:02;;;;;;;;;;;;;;;15.72;57.49;94623.53;5036869;28;1243;-57
2022/11/16 09:59:48;;;;;;;;;;;;;;;15.41;58.88;94609.59;5054774;28;1351;-58
2022/11/16 10:02:14;;;;;;;;;;;;;;;15.23;59.25;94612.03;5054747;28;1049;-58
2022/11/16 10:04:49;;;;;;;;;;;;;;;15.05;59.50;94601.84;5054643;28;1049;-57
2022/11/16 10:07:30;;;;;;;;;;;;;;;14.95;59.72;94604.94;5054400;28;1055;-57
2022/11/16 10:09:56;;;;;;;;;;;;;;;14.81;60.71;94605.91;5054665;28;955;-57
2022/11/16 10:12:31;;;;;;;;;;;;;;;14.80;61.05;94590.78;5054422;28;1910;-57
2022/11/16 10:15:17;;;;;;;;;;;;;;;14.76;61.30;94589.50;5054407;28;1065;-57
2022/11/16 10:18:02;;;;;;;;;;;;;;;14.60;61.61;94588.81;5054226;28;1052;-57
2022/11/16 10:20:36;;;;;;;;;;;;;;;14.49;61.77;94583.97;5054312;28;1064;-57
2022/11/16 10:23:02;;;;;;;;;;;;;;;14.38;62.25;94579.16;5054302;28;1030;-57
2022/11/16 10:25:31;;;;;;;;;;;;;;;14.33;62.75;94571.69;5054244;28;1048;-57
2022/11/16 10:28:25;;;;;;;;;;;;;;;14.29;63.42;94561.56;5054170;28;1291;-57
2022/11/16 10:31:12;;;;;;;;;;;;;;;14.40;63.41;94567.19;5054299;28;1065;-58
2022/11/16 10:33:40;;;;;;;;;;;;;;;14.49;63.57;94559.75;5043745;28;1220;-57
2022/11/16 10:36:13;;;;;;;;;;;;;;;14.48;63.16;94555.44;5054029;28;1021;-58
2022/11/16 10:38:40;;;;;;;;;;;;;;;14.33;63.71;94538.59;5053625;28;1383;-57
2022/11/16 10:41:16;;;;;;;;;;;;;;;14.29;63.77;94548.94;5053865;28;1026;-58
2022/11/16 10:43:42;;;;;;;;;;;;;;;14.31;63.48;94548.72;5053992;28;985;-57
2022/11/16 10:46:11;;;;;;;;;;;;;;;14.43;63.24;94534.50;5053763;28;1108;-57
2022/11/16 10:48:41;;;;;;;;;;;;;;;14.58;62.90;94531.69;5053758;28;966;-57
2022/11/16 10:51:08;;;;;;;;;;;;;;;14.86;61.69;94530.78;5053351;28;990;-57
2022/11/16 10:53:35;;;;;;;;;;;;;;;15.22;60.80;94535.00;5053483;28;1915;-58
2022/11/16 10:56:20;;;;;;;;;;;;;;;15.61;59.83;94519.88;5053461;28;1622;-58
2022/11/16 10:59:00;;;;;;;;;;;;;;;15.81;58.68;94526.13;5053691;28;1057;-70
2022/11/16 11:01:26;;;;;;;;;;;;;;;15.73;58.78;94512.88;5053538;28;1009;-58
2022/11/16 11:03:52;;;;;;;;;;;;;;;15.51;60.01;94506.00;5053450;28;1516;-58
2022/11/16 11:06:19;;;;;;;;;;;;;;;15.31;60.49;94500.59;5053636;28;1006;-58
2022/11/16 11:08:45;;;;;;;;;;;;;;;15.19;60.84;94498.53;5053414;28;1149;-58
2022/11/16 11:14:07;;;;;;;;;;;;;;;15.26;60.59;94486.94;5053336;28;978;-58
2022/11/16 11:16:33;;;;;;;;;;;;;;;15.20;61.12;94483.22;5053466;28;958;-58
2022/11/16 11:19:24;;;;;;;;;;;;;;;15.20;60.53;94477.84;5053543;28;1043;-58
2022/11/16 11:21:54;;;;;;;;;;;;;;;15.22;60.76;94478.44;5053320;28;1054;-58
2022/11/16 11:24:20;;;;;;;;;;;;;;;15.56;59.33;94468.50;5053187;28;1042;-58
2022/11/16 11:26:59;;;;;;;;;;;;;;;15.83;58.75;94463.13;5053236;28;966;-58
2022/11/16 11:29:33;;;;;;;;;;;;;;;16.21;57.46;94463.22;5053377;28;1061;-58
2022/11/16 11:32:03;;;;;;;;;;;;;;;16.47;57.38;94459.59;5053309;28;1926;-58
2022/11/16 11:34:31;;;;;;;;;;;;;;;16.73;56.25;94458.63;5053045;28;1144;-58
2022/11/16 11:37:00;;;;;;;;;;;;;;;16.72;55.71;94450.75;5053112;28;1042;-58
2022/11/16 11:39:30;;;;;;;;;;;;;;;16.64;56.80;94454.53;5052843;28;1441;-58
2022/11/16 11:42:00;;;;;;;;;;;;;;;16.59;56.77;94452.47;5053303;28;1042;-58
2022/11/16 11:44:34;;;;;;;;;;;;;;;16.45;56.50;94452.72;5052931;28;1042;-58
2022/11/16 11:47:08;;;;;;;;;;;;;;;16.28;56.99;94453.22;5053070;28;1114;-58
2022/11/16 11:49:37;;;;;;;;;;;;;;;16.25;56.58;94445.56;5052975;28;1028;-58
2022/11/16 11:52:16;;;;;;;;;;;;;;;16.24;56.89;94445.75;5052856;28;1906;-58
2022/11/16 11:54:45;;;;;;;;;;;;;;;16.18;57.73;94440.19;5053014;28;1654;-58
2022/11/16 11:57:21;;;;;;;;;;;;;;;16.19;57.77;94438.31;5053132;28;970;-58
2022/11/16 11:59:47;;;;;;;;;;;;;;;16.18;57.69;94437.50;5053045;28;1049;-58
2022/11/16 12:02:32;;;;;;;;;;;;;;;16.09;57.27;94436.09;5052888;28;1271;-57
2022/11/16 12:05:01;;;;;;;;;;;;;;;16.05;57.78;94434.00;5056812;28;993;-59
2022/11/16 12:07:46;;;;;;;;;;;;;;;16.05;57.54;94425.91;5056856;28;994;-58
2022/11/16 12:10:21;;;;;;;;;;;;;;;16.00;57.61;94421.19;5039143;28;1162;-58
2022/11/16 12:12:59;;;;;;;;;;;;;;;15.94;57.83;94427.41;5056617;28;1902;-59
2022/11/16 12:15:43;;;;;;;;;;;;;;;15.92;58.01;94418.72;5056889;28;1044;-59
2022/11/16 12:18:22;;;;;;;;;;;;;;;15.95;58.10;94412.88;5056748;28;970;-58
2022/11/16 12:20:48;;;;;;;;;;;;;;;15.98;57.94;94418.69;5038806;28;1054;-58
2022/11/16 12:23:29;;;;;;;;;;;;;;;16.00;58.22;94405.00;5056507;28;1133;-59
2022/11/16 12:26:18;;;;;;;;;;;;;;;15.94;58.04;94406.69;5056724;28;1269;-59
2022/11/16 12:29:02;;;;;;;;;;;;;;;15.91;58.05;94406.28;5056610;28;1109;-58
2022/11/16 12:31:43;;;;;;;;;;;;;;;15.77;59.01;94409.00;5056206;28;1910;-58
2022/11/16 12:34:09;;;;;;;;;;;;;;;15.78;59.24;94404.44;5038613;28;1651;-58
2022/11/16 12:36:35;;;;;;;;;;;;;;;15.80;58.66;94391.56;5056413;28;1064;-58
2022/11/16 12:39:01;;;;;;;;;;;;;;;15.88;58.23;94393.19;5038561;28;1515;-58
2022/11/16 12:41:30;;;;;;;;;;;;;;;15.89;58.19;94394.88;5056183;28;1272;-58
2022/11/16 12:44:00;;;;;;;;;;;;;;;15.89;58.08;94389.47;5056013;28;1340;-58
2022/11/16 12:46:36;;;;;;;;;;;;;;;15.89;58.15;94386.78;5055943;28;1047;-58
2022/11/16 12:49:05;;;;;;;;;;;;;;;15.90;57.94;94381.19;5056003;28;1005;-58
2022/11/16 12:51:31;;;;;;;;;;;;;;;15.95;58.28;94381.38;5055957;28;1910;-58
2022/11/16 12:54:12;;;;;;;;;;;;;;;15.99;57.52;94373.66;5038301;28;1602;-58
2022/11/16 12:56:50;;;;;;;;;;;;;;;15.99;57.59;94368.28;5037915;28;1089;-58
2022/11/16 12:59:45;;;;;;;;;;;;;;;16.03;57.99;94371.38;5055985;28;1038;-58
2022/11/16 13:02:41;;;;;;;;;;;;;;;16.12;57.54;94370.09;5042755;28;1303;-58
2022/11/16 13:05:17;;;;;;;;;;;;;;;16.05;57.62;94369.28;5001665;28;1211;-59
2022/11/16 13:07:46;;;;;;;;;;;;;;;16.07;57.86;94367.22;5038205;28;1014;-58
2022/11/16 13:10:17;;;;;;;;;;;;;;;16.08;57.62;94368.88;5055765;28;963;-58
2022/11/16 13:12:44;;;;;;;;;;;;;;;16.12;57.05;94364.72;5055573;28;1910;-58
2022/11/16 13:15:17;;;;;;;;;;;;;;;16.16;57.17;94358.69;5055251;28;1022;-58
2022/11/16 13:17:55;;;;;;;;;;;;;;;16.18;57.30;94361.16;5055474;28;1099;-57
2022/11/16 13:20:40;;;;;;;;;;;;;;;16.18;57.15;94353.06;5055385;28;1077;-58
2022/11/16 13:23:10;;;;;;;;;;;;;;;16.13;57.38;94353.72;5055458;28;1025;-58
2022/11/16 13:25:47;;;;;;;;;;;;;;;16.08;57.57;94352.69;5055334;28;1060;-58
2022/11/16 13:28:19;;;;;;;;;;;;;;;15.99;57.77;94352.09;5055579;28;1002;-58
2022/11/16 13:30:51;;;;;;;;;;;;;;;15.93;57.73;94353.78;5055207;28;1046;-58
2022/11/16 13:33:32;;;;;;;;;;;;;;;15.90;58.09;94356.13;5055061;28;1984;-58
2022/11/16 13:35:59;;;;;;;;;;;;;;;15.88;57.31;94352.78;5055119;28;1030;-58
2022/11/16 13:38:43;;;;;;;;;;;;;;;15.85;57.63;94355.91;5054850;28;1229;-58
2022/11/16 13:41:27;;;;;;;;;;;;;;;15.74;58.23;94342.03;5055022;28;1050;-58
2022/11/16 13:43:53;;;;;;;;;;;;;;;15.71;58.68;94341.63;5055114;28;984;-58
2022/11/16 13:46:19;;;;;;;;;;;;;;;15.70;58.56;94340.78;5054787;28;1062;-58
2022/11/16 13:48:45;;;;;;;;;;;;;;;15.68;58.35;94342.06;5054994;28;1053;-58
2022/11/16 13:51:20;;;;;;;;;;;;;;;15.67;58.67;94337.69;5054790;28;1017;-58
2022/11/16 13:53:50;;;;;;;;;;;;;;;15.65;58.55;94337.91;5054737;28;1042;-57